Terminal Aerodrome Forecast
Issued by NWS

Home | Current Version | Previous Version | Graphics & Text | Print | Product List | Glossary On
Versions: 1 2 3 4 5 6 7 8 9 10 11 12 13 14
955
FTUS43 KBIS 201312 AAB
TAFJMS
TAF AMD
KJMS 201312Z 2013/2112 16006KT 1/2SM FG OVC002
     FM201500 14010G17KT 5SM BR BKN007
     FM201700 15011KT P6SM FEW020
     FM210900 35008KT P6SM SCT250=

USA.gov is the U.S. government's official web portal to all federal, state and local government web resources and services.